createdAt,value
2023-09-23T03:17:52.131Z,96.65
2023-09-23T03:23:21.729Z,96.88
2023-09-23T03:28:25.079Z,96.95
2023-09-23T03:33:30.969Z,97.06
2023-09-23T03:38:34.616Z,97.06
2023-09-23T03:43:39.071Z,97.22
2023-09-23T03:48:43.347Z,97.34
2023-09-23T03:53:46.134Z,97.48
2023-09-23T03:58:49.371Z,97.20
2023-09-23T04:03:57.832Z,97.33
2023-09-23T04:09:07.152Z,97.83
2023-09-23T04:14:12.781Z,98.05
2023-09-23T04:19:15.423Z,97.86
2023-09-23T04:24:21.663Z,97.34
2023-09-23T04:29:27.154Z,97.07
2023-09-23T04:34:36.923Z,97.79
2023-09-23T04:39:39.885Z,97.30
2023-09-23T04:44:42.755Z,97.22
2023-09-23T04:49:49.499Z,96.93
2023-09-23T04:54:54.507Z,96.42
2023-09-23T04:59:58.816Z,96.67
2023-09-23T05:05:05.205Z,96.51
2023-09-23T05:10:08.568Z,96.26
2023-09-23T05:15:11.433Z,95.97
2023-09-23T05:20:26.944Z,95.83
2023-09-23T05:25:29.928Z,95.08
2023-09-23T05:30:33.134Z,94.95
2023-09-23T05:35:39.445Z,94.60
2023-09-23T05:40:42.291Z,94.92
2023-09-23T05:45:51.241Z,94.72
2023-09-23T05:51:04.481Z,94.54
2023-09-23T05:56:09.275Z,94.62
2023-09-23T06:01:17.389Z,93.84
2023-09-23T06:06:20.080Z,93.36
2023-09-23T06:11:25.855Z,92.79
2023-09-23T06:16:29.830Z,91.90
2023-09-23T06:21:35.150Z,91.18
2023-09-23T06:26:41.706Z,89.41
2023-09-23T06:31:50.241Z,89.27
2023-09-23T06:36:52.996Z,87.30
2023-09-23T06:41:59.393Z,86.28
2023-09-23T06:47:09.828Z,83.28
2023-09-23T06:52:15.414Z,81.94
2023-09-23T06:57:23.350Z,79.37
2023-09-23T07:02:27.717Z,78.01
2023-09-23T07:07:30.525Z,77.15
2023-09-23T07:12:36.085Z,75.58
2023-09-23T07:17:41.867Z,72.45
2023-09-23T07:22:44.760Z,70.18
2023-09-23T07:27:47.467Z,69.04
2023-09-23T07:32:53.141Z,68.54
2023-09-23T07:38:00.763Z,69.72
2023-09-23T07:43:04.138Z,69.75
2023-09-23T07:48:10.862Z,68.73
2023-09-23T07:53:16.464Z,69.34
2023-09-23T07:58:19.488Z,66.69
2023-09-23T08:03:28.203Z,63.27
2023-09-23T08:08:36.167Z,62.43
2023-09-23T08:13:41.866Z,56.01
2023-09-23T08:18:47.771Z,59.52
2023-09-23T08:23:50.386Z,62.46
2023-09-23T08:28:53.341Z,65.28
2023-09-23T08:33:56.121Z,64.45
2023-09-23T08:39:01.177Z,58.84
2023-09-23T08:44:08.489Z,59.15
2023-09-23T08:49:14.414Z,55.92
2023-09-23T08:54:18.446Z,60.02
2023-09-23T08:59:21.370Z,62.53
2023-09-23T09:04:25.486Z,64.08
2023-09-23T09:09:28.221Z,63.76
2023-09-23T09:14:33.634Z,63.25
2023-09-23T09:19:40.798Z,64.48
2023-09-23T09:24:44.386Z,60.53
2023-09-23T09:29:50.219Z,58.80
2023-09-23T09:34:55.809Z,61.46
2023-09-23T09:40:04.439Z,62.40
2023-09-23T09:45:11.613Z,59.46
2023-09-23T09:50:15.727Z,57.50
2023-09-23T09:55:23.002Z,55.83
2023-09-23T10:00:28.712Z,53.65
2023-09-23T10:05:51.047Z,56.27
2023-09-23T10:11:04.143Z,58.66
2023-09-23T10:16:13.589Z,58.61
2023-09-23T10:21:24.553Z,58.52
2023-09-23T10:26:32.129Z,58.44
2023-09-23T10:31:35.712Z,57.97
2023-09-23T10:36:38.484Z,58.48
2023-09-23T10:41:41.642Z,59.39
2023-09-23T10:46:44.382Z,56.80
2023-09-23T10:51:47.147Z,53.32
2023-09-23T10:56:51.210Z,49.39
2023-09-23T11:01:57.230Z,49.80
2023-09-23T11:07:00.352Z,48.28
2023-09-23T11:12:16.395Z,51.25
2023-09-23T11:17:30.435Z,53.88
2023-09-23T11:22:33.370Z,54.86
2023-09-23T11:27:36.122Z,53.34
2023-09-23T11:32:40.071Z,50.93
2023-09-23T11:37:42.822Z,52.00
2023-09-23T11:42:45.528Z,51.60
2023-09-23T11:47:51.072Z,53.02
2023-09-23T11:52:59.504Z,54.71
2023-09-23T11:58:05.251Z,55.99
2023-09-23T12:03:10.872Z,57.09
2023-09-23T12:08:13.587Z,56.97
2023-09-23T12:13:16.282Z,56.32
2023-09-23T12:18:19.889Z,52.54
2023-09-23T12:23:25.255Z,52.34
2023-09-23T12:28:33.469Z,52.95
2023-09-23T12:33:36.336Z,55.02
2023-09-23T12:38:40.986Z,55.29
2023-09-23T12:43:46.346Z,55.96
2023-09-23T12:48:54.589Z,56.27
2023-09-23T12:53:57.743Z,54.87
2023-09-23T12:59:01.041Z,51.35
2023-09-23T13:04:06.917Z,49.05
2023-09-23T13:09:10.793Z,48.60
2023-09-23T13:14:14.101Z,49.35
2023-09-23T13:19:17.009Z,49.36
2023-09-23T13:24:19.721Z,46.83
2023-09-23T13:29:22.385Z,47.25
2023-09-23T13:34:26.089Z,48.77
2023-09-23T13:39:36.386Z,49.87
2023-09-23T13:44:41.840Z,51.04
2023-09-23T13:49:44.981Z,51.60
2023-09-23T13:54:47.661Z,52.80
2023-09-23T13:59:50.350Z,53.18
2023-09-23T14:04:55.934Z,54.12
2023-09-23T14:10:03.768Z,54.21
2023-09-23T14:15:13.797Z,53.53
2023-09-23T14:20:16.721Z,53.90
2023-09-23T14:25:20.096Z,54.00
2023-09-23T14:30:22.794Z,54.36
2023-09-23T14:35:29.150Z,54.02
2023-09-23T14:40:32.550Z,54.22
2023-09-23T14:45:35.361Z,54.40
2023-09-23T14:50:44.985Z,54.66
2023-09-23T14:55:47.634Z,53.28
2023-09-23T15:00:56.614Z,53.82
2023-09-23T15:05:59.390Z,53.26
2023-09-23T15:11:02.117Z,53.58
2023-09-23T15:16:07.076Z,53.92
2023-09-23T15:21:09.955Z,55.04
2023-09-23T15:26:12.788Z,55.37
2023-09-23T15:31:15.523Z,55.94
2023-09-23T15:36:20.968Z,56.56
2023-09-23T15:41:24.449Z,56.62
2023-09-23T15:46:27.078Z,56.14
2023-09-23T15:51:29.800Z,56.76
2023-09-23T15:56:35.614Z,57.33
2023-09-23T16:01:39.450Z,57.96
2023-09-23T16:06:42.131Z,58.37
2023-09-23T16:11:44.980Z,58.30
2023-09-23T16:16:48.760Z,58.96
2023-09-23T16:21:52.970Z,59.43
2023-09-23T16:26:55.906Z,60.35
2023-09-23T16:31:58.734Z,61.63
2023-09-23T16:37:01.331Z,62.84
2023-09-23T16:42:04.029Z,64.10
2023-09-23T16:47:06.899Z,64.65
2023-09-23T16:52:09.546Z,66.35
2023-09-23T16:57:12.242Z,67.24
2023-09-23T17:02:23.911Z,68.26
2023-09-23T17:07:30.451Z,69.06
2023-09-23T17:12:35.919Z,70.39
2023-09-23T17:17:38.738Z,71.43
2023-09-23T17:22:41.885Z,73.35
2023-09-23T17:27:47.617Z,73.84
2023-09-23T17:32:50.438Z,75.25
2023-09-23T17:37:54.570Z,76.22
2023-09-23T17:43:00.067Z,76.53
2023-09-23T17:48:06.032Z,77.41
2023-09-23T17:53:14.524Z,77.93
2023-09-23T17:58:17.178Z,79.07
2023-09-23T18:03:20.883Z,80.25
2023-09-23T18:08:23.562Z,80.11
2023-09-23T18:13:30.348Z,79.78
2023-09-23T18:18:33.328Z,78.89
2023-09-23T18:23:36.152Z,78.37
2023-09-23T18:28:38.954Z,78.58
2023-09-23T18:33:42.139Z,78.50
2023-09-23T18:38:46.830Z,78.02
2023-09-23T18:43:50.099Z,78.40
2023-09-23T18:48:52.945Z,78.37
2023-09-23T18:53:55.850Z,78.12
2023-09-23T18:58:58.666Z,77.60
2023-09-23T19:04:04.722Z,77.89
2023-09-23T19:09:08.144Z,78.22
2023-09-23T19:14:21.003Z,78.12
2023-09-23T19:19:24.298Z,78.02
2023-09-23T19:24:27.337Z,78.06
2023-09-23T19:29:29.966Z,77.37
2023-09-23T19:34:35.656Z,76.45
2023-09-23T19:39:39.074Z,76.39
2023-09-23T19:44:41.863Z,76.23
2023-09-23T19:49:44.576Z,76.61
2023-09-23T19:54:47.530Z,75.94
2023-09-23T19:59:50.341Z,75.26
2023-09-23T20:04:53.003Z,74.93
2023-09-23T20:09:55.689Z,75.18
2023-09-23T20:14:58.368Z,74.84
2023-09-23T20:20:01.137Z,74.71
2023-09-23T20:25:06.839Z,74.82
2023-09-23T20:30:10.061Z,75.25
2023-09-23T20:35:13.190Z,76.30
2023-09-23T20:40:19.146Z,76.15
2023-09-23T20:45:22.137Z,76.68
2023-09-23T20:50:28.845Z,76.77
2023-09-23T20:55:31.828Z,77.04
2023-09-23T21:00:37.771Z,77.40
2023-09-23T21:05:40.418Z,77.79
2023-09-23T21:10:43.133Z,78.61
2023-09-23T21:15:45.774Z,78.78
2023-09-23T21:20:48.493Z,79.04
2023-09-23T21:25:53.375Z,79.32
2023-09-23T21:30:56.466Z,79.28
2023-09-23T21:35:59.173Z,79.78
2023-09-23T21:41:02.097Z,80.25
2023-09-23T21:46:08.897Z,80.50
2023-09-23T21:51:11.594Z,80.59
2023-09-23T21:56:14.828Z,81.11
2023-09-23T22:01:18.256Z,81.79
2023-09-23T22:06:20.873Z,82.37
2023-09-23T22:11:24.254Z,82.60
2023-09-23T22:16:29.712Z,82.78
2023-09-23T22:21:33.156Z,82.88
2023-09-23T22:26:37.910Z,82.58
2023-09-23T22:31:43.411Z,82.61
2023-09-23T22:36:46.402Z,82.86
2023-09-23T22:41:51.006Z,82.86
2023-09-23T22:46:55.201Z,83.57
2023-09-23T22:51:59.419Z,83.65
2023-09-23T22:57:02.148Z,83.81
2023-09-23T23:02:04.883Z,83.82
2023-09-23T23:07:07.647Z,83.82
2023-09-23T23:12:11.352Z,83.74
2023-09-23T23:17:15.661Z,84.12
2023-09-23T23:22:18.283Z,84.67
2023-09-23T23:27:21.177Z,84.17
2023-09-23T23:32:23.888Z,85.13
2023-09-23T23:37:26.574Z,84.79
2023-09-23T23:42:29.362Z,85.62
2023-09-23T23:47:32.475Z,85.64
2023-09-23T23:52:37.332Z,85.58
2023-09-23T23:57:40.708Z,85.85
